createdAt,value
2022-12-20T00:01:28.299Z,2.19
2022-12-20T00:03:56.861Z,2.17
2022-12-20T00:06:25.013Z,2.20
2022-12-20T00:08:56.564Z,2.18
2022-12-20T00:11:23.658Z,2.16
2022-12-20T00:13:50.693Z,2.12
2022-12-20T00:16:20.037Z,2.09
2022-12-20T00:18:47.998Z,2.08
2022-12-20T00:21:15.713Z,2.06
2022-12-20T00:23:42.472Z,2.05
2022-12-20T00:26:14.995Z,2.05
2022-12-20T00:28:42.682Z,2.04
2022-12-20T00:31:11.397Z,1.99
2022-12-20T00:33:38.997Z,1.96
2022-12-20T00:36:06.852Z,1.92
2022-12-20T00:38:33.895Z,1.92
2022-12-20T00:41:04.540Z,1.90
2022-12-20T00:43:32.055Z,1.86
2022-12-20T00:45:58.781Z,1.85
2022-12-20T00:48:26.108Z,1.84
2022-12-20T00:50:52.982Z,1.81
2022-12-20T00:53:26.069Z,1.82
2022-12-20T00:55:53.004Z,1.82
2022-12-20T00:58:19.565Z,1.88
2022-12-20T01:00:50.657Z,1.93
2022-12-20T01:03:22.306Z,2.04
2022-12-20T01:05:59.758Z,2.09
2022-12-20T01:08:27.747Z,2.10
2022-12-20T01:11:13.414Z,2.10
2022-12-20T01:13:43.275Z,2.06
2022-12-20T01:16:14.401Z,2.03
2022-12-20T01:18:40.981Z,1.99
2022-12-20T01:21:10.049Z,1.98
2022-12-20T01:23:37.609Z,1.96
2022-12-20T01:26:09.150Z,1.98
2022-12-20T01:28:36.333Z,1.98
2022-12-20T01:31:05.773Z,1.97
2022-12-20T01:33:32.269Z,1.94
2022-12-20T01:36:03.724Z,1.91
2022-12-20T01:38:30.771Z,1.89
2022-12-20T01:41:00.313Z,1.88
2022-12-20T01:43:46.432Z,1.85
2022-12-20T01:46:13.003Z,1.80
2022-12-20T01:48:42.549Z,1.79
2022-12-20T01:51:09.642Z,1.78
2022-12-20T01:53:36.277Z,1.78
2022-12-20T01:56:06.660Z,1.81
2022-12-20T01:58:36.401Z,1.86
2022-12-20T02:01:06.267Z,1.87
2022-12-20T02:03:32.973Z,1.88
2022-12-20T02:06:14.415Z,1.88
2022-12-20T02:08:40.888Z,1.87
2022-12-20T02:11:19.851Z,1.86
2022-12-20T02:14:07.386Z,1.87
2022-12-20T02:16:47.141Z,1.87
2022-12-20T02:19:31.867Z,1.86
2022-12-20T02:22:34.242Z,1.88
2022-12-20T02:25:42.539Z,1.92
2022-12-20T02:28:41.186Z,1.94
2022-12-20T02:31:12.883Z,1.92
2022-12-20T02:33:42.715Z,1.95
2022-12-20T02:36:09.701Z,1.94
2022-12-20T02:38:38.579Z,1.90
2022-12-20T02:41:07.979Z,1.86
2022-12-20T02:43:58.019Z,1.83
2022-12-20T02:46:27.400Z,1.79
2022-12-20T02:48:58.318Z,1.76
2022-12-20T02:51:28.691Z,1.74
2022-12-20T02:53:55.540Z,1.71
2022-12-20T02:56:30.392Z,1.68
2022-12-20T02:59:07.745Z,1.70
2022-12-20T03:01:39.387Z,1.69
2022-12-20T03:04:09.085Z,1.68
2022-12-20T03:06:39.217Z,1.67
2022-12-20T03:09:09.244Z,1.67
2022-12-20T03:11:36.504Z,1.71
2022-12-20T03:14:06.071Z,1.74
2022-12-20T03:16:48.752Z,1.75
2022-12-20T03:19:19.636Z,1.79
2022-12-20T03:21:46.867Z,1.87
2022-12-20T03:24:24.461Z,1.91
2022-12-20T03:26:57.414Z,1.94
2022-12-20T03:29:30.889Z,1.97
2022-12-20T03:32:03.326Z,1.97
2022-12-20T03:34:35.710Z,1.98
2022-12-20T03:37:09.848Z,1.99
2022-12-20T03:39:37.568Z,1.98
2022-12-20T03:42:07.745Z,1.97
2022-12-20T03:44:34.745Z,1.95
2022-12-20T03:47:02.546Z,1.96
2022-12-20T03:49:29.823Z,1.99
2022-12-20T03:52:03.500Z,2.00
2022-12-20T03:54:35.399Z,2.02
2022-12-20T03:57:06.214Z,2.04
2022-12-20T03:59:36.514Z,2.06
2022-12-20T04:02:04.964Z,2.07
2022-12-20T04:04:37.450Z,2.08
2022-12-20T04:07:14.493Z,2.05
2022-12-20T04:09:54.615Z,2.04
2022-12-20T04:12:21.649Z,2.06
2022-12-20T04:14:53.980Z,2.09
2022-12-20T04:17:21.156Z,2.09
2022-12-20T04:19:48.484Z,2.07
2022-12-20T04:22:19.290Z,2.07
2022-12-20T04:24:55.495Z,2.06
2022-12-20T04:27:23.155Z,2.06
2022-12-20T04:29:52.913Z,2.06
2022-12-20T04:32:20.299Z,2.06
2022-12-20T04:34:53.060Z,2.03
2022-12-20T04:37:24.608Z,2.04
2022-12-20T04:39:54.616Z,2.04
2022-12-20T04:42:27.410Z,2.04
2022-12-20T04:44:57.586Z,2.03
2022-12-20T04:47:27.957Z,2.00
2022-12-20T04:49:55.603Z,1.98
2022-12-20T04:52:47.414Z,1.96
2022-12-20T04:55:21.011Z,1.94
2022-12-20T04:57:54.601Z,1.94
2022-12-20T05:00:26.507Z,1.93
2022-12-20T05:02:53.732Z,1.98
2022-12-20T05:05:26.443Z,2.00
2022-12-20T05:08:02.332Z,2.06
2022-12-20T05:16:20.480Z,2.06
2022-12-20T05:18:49.637Z,2.08
2022-12-20T05:21:38.942Z,2.08
2022-12-20T05:24:34.120Z,2.06
2022-12-20T05:27:26.915Z,2.06
2022-12-20T05:29:56.544Z,2.08
2022-12-20T05:32:35.230Z,2.10
2022-12-20T05:35:07.949Z,2.09
2022-12-20T05:37:46.982Z,2.10
2022-12-20T05:40:18.323Z,2.10
2022-12-20T05:42:48.886Z,2.06
2022-12-20T05:45:24.844Z,2.07
2022-12-20T05:47:55.066Z,2.06
2022-12-20T05:50:28.341Z,2.05
2022-12-20T05:53:10.988Z,2.03
2022-12-20T05:55:42.677Z,2.02
2022-12-20T05:58:13.993Z,2.03
2022-12-20T06:00:50.397Z,2.03
2022-12-20T06:03:57.469Z,2.07
2022-12-20T06:06:25.572Z,2.07
2022-12-20T06:08:56.865Z,2.06
2022-12-20T06:11:34.521Z,2.05
2022-12-20T06:14:04.961Z,2.03
2022-12-20T06:17:01.553Z,2.06
2022-12-20T06:19:39.723Z,2.08
2022-12-20T06:22:22.705Z,2.08
2022-12-20T06:24:56.301Z,2.06
2022-12-20T06:27:30.238Z,2.05
2022-12-20T06:30:27.544Z,2.05
2022-12-20T06:33:00.417Z,2.09
2022-12-20T06:35:31.356Z,2.11
2022-12-20T06:38:03.463Z,2.11
2022-12-20T06:40:36.829Z,2.13
2022-12-20T06:43:06.406Z,2.16
2022-12-20T06:45:41.609Z,2.17
2022-12-20T06:48:14.539Z,2.21
2022-12-20T06:50:52.088Z,2.24
2022-12-20T06:53:27.486Z,2.25
2022-12-20T06:56:03.399Z,2.28
2022-12-20T06:58:31.457Z,2.28
2022-12-20T07:01:04.617Z,2.27
2022-12-20T07:03:39.798Z,2.28
2022-12-20T07:06:13.294Z,2.33
2022-12-20T07:09:10.474Z,2.37
2022-12-20T07:11:41.023Z,2.37
2022-12-20T07:14:14.690Z,2.37
2022-12-20T07:16:45.212Z,2.40
2022-12-20T07:19:22.616Z,2.46
2022-12-20T07:21:50.279Z,2.50
2022-12-20T07:24:17.720Z,2.49
2022-12-20T07:26:56.306Z,2.53
2022-12-20T07:29:27.972Z,2.56
2022-12-20T07:31:55.833Z,2.55
2022-12-20T07:34:25.845Z,2.53
2022-12-20T07:37:04.138Z,2.53
2022-12-20T07:39:50.726Z,2.53
2022-12-20T07:42:21.200Z,2.55
2022-12-20T07:44:54.412Z,2.56
2022-12-20T07:47:22.035Z,2.57
2022-12-20T07:49:59.125Z,2.57
2022-12-20T07:52:29.862Z,2.57
2022-12-20T07:55:01.317Z,2.59
2022-12-20T07:57:31.587Z,2.64
2022-12-20T08:00:00.721Z,2.70
2022-12-20T08:02:32.352Z,2.74
2022-12-20T08:04:59.728Z,2.76
2022-12-20T08:07:29.246Z,2.79
2022-12-20T08:09:55.976Z,2.83
2022-12-20T08:12:22.882Z,2.87
2022-12-20T08:14:52.440Z,2.89
2022-12-20T08:17:19.008Z,2.93
2022-12-20T08:19:45.416Z,2.97
2022-12-20T08:22:11.816Z,3.03
2022-12-20T08:24:38.238Z,3.19
2022-12-20T08:27:04.648Z,3.43
2022-12-20T08:29:31.067Z,3.67
2022-12-20T08:31:57.506Z,3.90
2022-12-20T08:34:23.884Z,4.06
2022-12-20T08:36:50.464Z,4.16
2022-12-20T08:39:16.927Z,4.24
2022-12-20T08:41:43.784Z,4.41
2022-12-20T08:44:10.771Z,4.45
2022-12-20T08:46:37.733Z,4.50
2022-12-20T08:49:05.339Z,4.49
2022-12-20T08:51:32.078Z,4.39
2022-12-20T08:53:59.008Z,4.25
2022-12-20T08:56:31.878Z,4.13
2022-12-20T08:59:22.899Z,4.06
2022-12-20T09:02:19.291Z,4.14
2022-12-20T09:04:45.969Z,4.19
2022-12-20T09:07:12.417Z,4.24
2022-12-20T09:09:38.934Z,4.31
2022-12-20T09:12:05.699Z,4.38
2022-12-20T09:14:32.263Z,4.37
2022-12-20T09:16:58.851Z,4.35
2022-12-20T09:19:25.267Z,4.31
2022-12-20T09:21:51.762Z,4.35
2022-12-20T09:24:18.305Z,4.37
2022-12-20T09:26:45.739Z,4.46
2022-12-20T09:29:19.664Z,4.54
2022-12-20T09:31:51.562Z,4.62
2022-12-20T09:34:18.338Z,4.70
2022-12-20T09:36:45.078Z,4.84
2022-12-20T09:39:11.669Z,4.92
2022-12-20T09:41:40.544Z,4.94
2022-12-20T09:44:33.952Z,4.97
2022-12-20T09:47:10.554Z,4.97
2022-12-20T09:49:41.934Z,4.97
2022-12-20T09:52:23.238Z,5.00
2022-12-20T09:55:01.736Z,5.10
2022-12-20T09:57:57.475Z,5.24
2022-12-20T10:00:24.144Z,5.37
2022-12-20T10:05:55.382Z,5.48
2022-12-20T10:08:46.346Z,5.56
2022-12-20T10:11:42.011Z,5.61
2022-12-20T10:14:22.037Z,5.57
2022-12-20T10:16:56.857Z,5.61
2022-12-20T10:19:51.345Z,5.68
2022-12-20T10:22:25.118Z,5.75
2022-12-20T10:25:00.687Z,5.72
2022-12-20T10:27:27.605Z,5.70
2022-12-20T10:29:54.044Z,5.75
2022-12-20T10:32:23.251Z,5.85
2022-12-20T10:35:15.330Z,5.87
2022-12-20T10:38:07.972Z,5.88
2022-12-20T10:41:18.722Z,5.91
2022-12-20T10:43:26.917Z,5.94
2022-12-20T10:46:06.617Z,5.92
2022-12-20T10:48:35.757Z,5.91
2022-12-20T10:51:04.307Z,5.87
2022-12-20T10:53:32.681Z,5.86
2022-12-20T10:56:18.125Z,5.84
2022-12-20T10:59:02.271Z,5.85
2022-12-20T11:01:32.288Z,5.89
2022-12-20T11:04:04.698Z,5.93
2022-12-20T11:06:37.268Z,5.91
2022-12-20T11:09:25.498Z,5.86
2022-12-20T11:12:14.698Z,5.78
2022-12-20T11:14:43.725Z,5.72
2022-12-20T11:17:12.928Z,5.69
2022-12-20T11:19:48.477Z,5.75
2022-12-20T11:22:34.617Z,5.88
2022-12-20T11:25:33.651Z,6.07
2022-12-20T11:28:25.086Z,6.16
2022-12-20T11:31:09.962Z,6.18
2022-12-20T11:34:10.747Z,6.17
2022-12-20T11:37:15.126Z,6.19
2022-12-20T11:39:59.583Z,6.29
2022-12-20T11:42:26.010Z,6.29
2022-12-20T11:45:08.682Z,6.29
2022-12-20T11:47:44.987Z,6.29
2022-12-20T11:50:31.677Z,6.30
2022-12-20T11:53:36.306Z,6.29
2022-12-20T11:56:09.445Z,6.24
2022-12-20T11:58:47.022Z,6.16
2022-12-20T12:01:24.080Z,6.06
2022-12-20T12:03:54.302Z,5.98
2022-12-20T12:06:27.041Z,5.89
2022-12-20T12:08:55.953Z,5.82
2022-12-20T12:14:28.777Z,5.70
2022-12-20T12:16:59.922Z,5.69
2022-12-20T12:19:30.737Z,5.70
2022-12-20T12:22:06.386Z,5.69
2022-12-20T12:24:39.098Z,5.67
2022-12-20T12:27:09.785Z,5.66
2022-12-20T12:29:39.344Z,5.70
2022-12-20T12:32:19.021Z,5.75
2022-12-20T12:35:07.515Z,5.84
2022-12-20T12:37:55.808Z,5.96
2022-12-20T12:40:25.160Z,6.02
2022-12-20T12:43:16.603Z,6.09
2022-12-20T12:45:47.985Z,6.13
2022-12-20T12:48:32.651Z,6.10
2022-12-20T12:51:04.194Z,6.09
2022-12-20T12:53:43.496Z,6.08
2022-12-20T12:56:44.434Z,6.09
2022-12-20T12:59:39.850Z,6.08
2022-12-20T13:02:15.823Z,6.04
2022-12-20T13:05:10.464Z,6.03
2022-12-20T13:07:36.878Z,6.07
2022-12-20T13:10:09.595Z,6.15
2022-12-20T13:12:38.814Z,6.14
2022-12-20T13:15:20.494Z,6.15
2022-12-20T13:18:09.450Z,6.14
2022-12-20T13:20:36.960Z,6.15
2022-12-20T13:23:10.427Z,6.13
2022-12-20T13:25:41.520Z,6.10
2022-12-20T13:28:17.907Z,6.15
2022-12-20T13:30:46.555Z,6.33
2022-12-20T13:33:39.692Z,6.63
2022-12-20T13:36:12.159Z,6.73
2022-12-20T13:38:38.852Z,6.78
2022-12-20T13:41:35.810Z,6.88
2022-12-20T13:44:16.116Z,6.96
2022-12-20T13:46:49.881Z,6.99
2022-12-20T13:49:27.560Z,7.06
2022-12-20T13:52:07.536Z,7.10
2022-12-20T13:54:36.194Z,7.05
2022-12-20T13:57:06.147Z,7.07
2022-12-20T13:59:33.404Z,7.06
2022-12-20T14:02:04.475Z,7.05
2022-12-20T14:04:46.644Z,6.99
2022-12-20T14:07:16.586Z,6.87
2022-12-20T14:09:46.214Z,6.74
2022-12-20T14:12:16.753Z,6.63
2022-12-20T14:14:50.052Z,6.54
2022-12-20T14:17:26.692Z,6.50
2022-12-20T14:20:17.661Z,6.47
2022-12-20T14:23:05.999Z,6.45
2022-12-20T14:25:38.646Z,6.43
2022-12-20T14:28:10.710Z,6.40
2022-12-20T14:30:43.846Z,6.38
2022-12-20T14:33:28.847Z,6.32
2022-12-20T14:35:55.312Z,6.28
2022-12-20T14:38:24.599Z,6.23
2022-12-20T14:40:54.186Z,6.22
2022-12-20T14:43:32.763Z,6.19
2022-12-20T14:46:20.362Z,6.12
2022-12-20T14:48:47.431Z,6.04
2022-12-20T14:51:20.762Z,5.98
2022-12-20T14:53:50.926Z,5.92
2022-12-20T14:56:21.729Z,5.87
2022-12-20T14:59:06.780Z,5.87
2022-12-20T15:01:37.186Z,5.88
2022-12-20T15:04:25.487Z,5.84
2022-12-20T15:06:55.173Z,5.82
2022-12-20T15:09:21.687Z,5.81
2022-12-20T15:11:48.798Z,5.80
2022-12-20T15:14:23.844Z,5.79
2022-12-20T15:16:50.303Z,5.78
2022-12-20T15:19:16.769Z,5.74
2022-12-20T15:21:45.069Z,5.72
2022-12-20T15:24:18.526Z,5.68
2022-12-20T15:26:45.049Z,5.64
2022-12-20T15:29:29.389Z,5.59
2022-12-20T15:32:24.639Z,5.59
2022-12-20T15:34:51.405Z,5.56
2022-12-20T15:37:19.034Z,5.53
2022-12-20T15:39:45.879Z,5.46
2022-12-20T15:42:17.174Z,5.41
2022-12-20T15:44:44.070Z,5.37
2022-12-20T15:47:14.101Z,5.36
2022-12-20T15:49:46.109Z,5.36
2022-12-20T15:52:21.898Z,5.35
2022-12-20T15:54:48.964Z,5.37
2022-12-20T15:57:15.743Z,5.38
2022-12-20T16:00:00.541Z,5.37
2022-12-20T16:02:29.462Z,5.33
2022-12-20T16:04:56.787Z,5.32
2022-12-20T16:07:24.049Z,5.30
2022-12-20T16:09:50.799Z,5.30
2022-12-20T16:12:28.086Z,5.29
2022-12-20T16:14:55.369Z,5.32
2022-12-20T16:17:21.828Z,5.34
2022-12-20T16:19:48.319Z,5.33
2022-12-20T16:22:17.214Z,5.31
2022-12-20T16:24:44.233Z,5.32
2022-12-20T16:27:10.938Z,5.32
2022-12-20T16:29:37.416Z,5.31
2022-12-20T16:32:14.258Z,5.32
2022-12-20T16:34:40.733Z,5.36
2022-12-20T16:37:07.203Z,5.37
2022-12-20T16:39:33.604Z,5.37
2022-12-20T16:42:01.469Z,5.38
2022-12-20T16:44:27.868Z,5.39
2022-12-20T16:46:54.553Z,5.42
2022-12-20T16:49:21.193Z,5.43
2022-12-20T16:51:48.889Z,5.42
2022-12-20T16:54:21.854Z,5.40
2022-12-20T16:56:56.716Z,5.39
2022-12-20T16:59:23.853Z,5.40
2022-12-20T17:01:54.309Z,5.45
2022-12-20T17:04:21.714Z,5.62
2022-12-20T17:06:48.792Z,5.78
2022-12-20T17:09:16.314Z,5.83
2022-12-20T17:11:43.343Z,5.80
2022-12-20T17:14:13.049Z,5.78
2022-12-20T17:16:40.548Z,5.77
2022-12-20T17:19:07.140Z,5.75
2022-12-20T17:24:32.184Z,5.75
2022-12-20T17:26:58.695Z,5.78
2022-12-20T17:29:25.130Z,5.80
2022-12-20T17:31:51.618Z,5.94
2022-12-20T17:34:30.177Z,5.96
2022-12-20T17:36:57.961Z,5.98
2022-12-20T17:39:25.713Z,5.95
2022-12-20T17:41:52.508Z,5.93
2022-12-20T17:44:22.248Z,5.95
2022-12-20T17:46:48.742Z,6.13
2022-12-20T17:49:16.111Z,6.25
2022-12-20T17:51:43.390Z,6.29
2022-12-20T17:54:18.019Z,6.25
2022-12-20T17:56:45.108Z,6.21
2022-12-20T17:59:12.955Z,6.16
2022-12-20T18:01:40.507Z,6.12
2022-12-20T18:04:09.500Z,6.12
2022-12-20T18:06:37.924Z,6.11
2022-12-20T18:09:08.155Z,6.08
2022-12-20T18:11:34.847Z,6.07
2022-12-20T18:14:01.371Z,6.06
2022-12-20T18:16:30.123Z,6.07
2022-12-20T18:18:57.249Z,6.15
2022-12-20T18:21:25.710Z,6.17
2022-12-20T18:23:53.511Z,6.23
2022-12-20T18:26:21.549Z,6.24
2022-12-20T18:28:50.343Z,6.20
2022-12-20T18:31:22.822Z,6.15
2022-12-20T18:33:55.572Z,6.08
2022-12-20T18:36:26.581Z,6.05
2022-12-20T18:38:53.973Z,6.08
2022-12-20T18:41:26.247Z,6.17
2022-12-20T18:43:54.020Z,6.28
2022-12-20T18:46:22.600Z,6.36
2022-12-20T18:48:54.303Z,6.46
2022-12-20T18:51:23.208Z,6.49
2022-12-20T18:53:51.715Z,6.55
2022-12-20T18:56:21.630Z,6.58
2022-12-20T18:58:48.629Z,6.57
2022-12-20T19:01:22.071Z,6.57
2022-12-20T19:03:50.679Z,6.56
2022-12-20T19:06:17.882Z,6.54
2022-12-20T19:08:44.496Z,6.54
2022-12-20T19:11:13.724Z,6.54
2022-12-20T19:13:41.761Z,6.58
2022-12-20T19:16:12.922Z,6.60
2022-12-20T19:18:40.976Z,6.60
2022-12-20T19:21:15.074Z,6.59
2022-12-20T19:23:43.264Z,6.60
2022-12-20T19:26:11.988Z,6.66
2022-12-20T19:28:39.665Z,6.71
2022-12-20T19:31:21.211Z,6.78
2022-12-20T19:33:49.050Z,6.80
2022-12-20T19:36:18.621Z,6.79
2022-12-20T19:38:56.774Z,6.78
2022-12-20T19:41:25.715Z,6.72
2022-12-20T19:43:52.661Z,6.68
2022-12-20T19:46:28.014Z,6.64
2022-12-20T19:48:55.632Z,6.61
2022-12-20T19:51:22.986Z,6.54
2022-12-20T19:53:51.870Z,6.48
2022-12-20T19:56:21.649Z,6.39
2022-12-20T19:58:48.324Z,6.31
2022-12-20T20:01:16.072Z,6.21
2022-12-20T20:03:42.767Z,6.13
2022-12-20T20:06:09.877Z,6.01
2022-12-20T20:12:26.577Z,5.87
2022-12-20T20:14:52.980Z,5.83
2022-12-20T20:17:19.565Z,5.81
2022-12-20T20:19:46.991Z,5.80
2022-12-20T20:22:17.699Z,5.80
2022-12-20T20:24:47.437Z,5.78
2022-12-20T20:27:13.910Z,5.75
2022-12-20T20:29:40.456Z,5.72
2022-12-20T20:32:07.609Z,5.67
2022-12-20T20:34:34.029Z,5.65
2022-12-20T20:37:01.010Z,5.61
2022-12-20T20:39:27.364Z,5.57
2022-12-20T20:41:53.773Z,5.52
2022-12-20T20:44:20.163Z,5.48
2022-12-20T20:46:46.615Z,5.45
2022-12-20T20:49:13.046Z,5.43
2022-12-20T20:51:39.989Z,5.43
2022-12-20T20:54:06.455Z,5.38
2022-12-20T20:56:34.040Z,5.39
2022-12-20T20:59:05.248Z,5.39
2022-12-20T21:01:34.646Z,5.38
2022-12-20T21:04:01.315Z,5.38
2022-12-20T21:06:40.632Z,5.40
2022-12-20T21:09:08.292Z,5.42
2022-12-20T21:11:36.826Z,5.48
2022-12-20T21:14:03.450Z,5.55
2022-12-20T21:16:29.985Z,5.60
2022-12-20T21:18:58.776Z,5.69
2022-12-20T21:21:26.390Z,5.73
2022-12-20T21:23:54.306Z,5.77
2022-12-20T21:26:22.175Z,5.81
2022-12-20T21:28:48.626Z,5.86
2022-12-20T21:31:17.695Z,5.92
2022-12-20T21:33:46.049Z,5.94
2022-12-20T21:36:15.420Z,5.97
2022-12-20T21:38:42.744Z,5.97
2022-12-20T21:41:13.008Z,5.95
2022-12-20T21:43:39.746Z,5.92
2022-12-20T21:46:11.114Z,5.91
2022-12-20T21:48:39.322Z,5.90
2022-12-20T21:51:11.367Z,5.89
2022-12-20T21:53:43.709Z,5.88
2022-12-20T21:56:10.619Z,5.88
2022-12-20T21:58:37.689Z,5.87
2022-12-20T22:01:05.996Z,5.89
2022-12-20T22:03:32.533Z,5.90
2022-12-20T22:05:59.169Z,5.92
2022-12-20T22:08:27.106Z,5.96
2022-12-20T22:11:17.154Z,5.99
2022-12-20T22:13:44.772Z,5.99
2022-12-20T22:16:14.092Z,6.00
2022-12-20T22:18:41.899Z,6.00
2022-12-20T22:21:11.426Z,5.99
2022-12-20T22:23:38.180Z,6.00
2022-12-20T22:26:06.378Z,6.01
2022-12-20T22:28:32.806Z,6.02
2022-12-20T22:30:59.218Z,6.07
2022-12-20T22:33:25.784Z,6.10
2022-12-20T22:35:52.327Z,6.15
2022-12-20T22:38:18.762Z,6.17
2022-12-20T22:40:45.152Z,6.19
2022-12-20T22:43:11.590Z,6.19
2022-12-20T22:45:38.061Z,6.20
2022-12-20T22:48:04.774Z,6.20
2022-12-20T22:50:31.150Z,6.21
2022-12-20T22:52:58.512Z,6.25
2022-12-20T22:55:25.134Z,6.32
2022-12-20T22:57:51.553Z,6.34
2022-12-20T23:00:18.225Z,6.37
2022-12-20T23:02:44.911Z,6.39
2022-12-20T23:05:11.521Z,6.38
2022-12-20T23:07:38.020Z,6.41
2022-12-20T23:10:24.811Z,6.45
2022-12-20T23:13:09.791Z,6.49
2022-12-20T23:15:41.850Z,6.49
2022-12-20T23:18:08.278Z,6.47
2022-12-20T23:20:53.163Z,6.48
2022-12-20T23:23:19.568Z,6.47
2022-12-20T23:25:46.022Z,6.48
2022-12-20T23:28:12.400Z,6.47
2022-12-20T23:30:38.789Z,6.48
2022-12-20T23:33:05.498Z,6.54
2022-12-20T23:35:31.911Z,6.63
2022-12-20T23:37:59.015Z,6.65
2022-12-20T23:40:25.378Z,6.64
2022-12-20T23:42:54.481Z,6.62
2022-12-20T23:45:20.894Z,6.63
2022-12-20T23:47:47.309Z,6.63
2022-12-20T23:50:13.761Z,6.63
2022-12-20T23:52:40.426Z,6.62
2022-12-20T23:55:07.226Z,6.63
2022-12-20T23:57:33.672Z,6.63
